sensor_id;sensor_type;location;lat;lon;timestamp;pressure;altitude;pressure_sealevel;temperature;humidity
66627;BME280;53498;50.422;14.912;2023-03-23T00:01:09;98416.69;;;9.95;87.77
66627;BME280;53498;50.422;14.912;2023-03-23T00:03:45;98417.66;;;9.80;89.42
66627;BME280;53498;50.422;14.912;2023-03-23T00:06:12;98422.00;;;9.77;89.43
66627;BME280;53498;50.422;14.912;2023-03-23T00:08:43;98416.84;;;9.73;90.03
66627;BME280;53498;50.422;14.912;2023-03-23T00:11:18;98419.47;;;9.69;90.38
66627;BME280;53498;50.422;14.912;2023-03-23T00:13:46;98424.72;;;9.63;89.98
66627;BME280;53498;50.422;14.912;2023-03-23T00:16:13;98422.94;;;9.68;89.76
66627;BME280;53498;50.422;14.912;2023-03-23T00:19:04;98426.44;;;9.61;89.81
66627;BME280;53498;50.422;14.912;2023-03-23T00:21:37;98429.09;;;9.53;89.81
66627;BME280;53498;50.422;14.912;2023-03-23T00:24:17;98429.97;;;9.50;91.00
66627;BME280;53498;50.422;14.912;2023-03-23T00:26:44;98426.50;;;9.52;91.24
66627;BME280;53498;50.422;14.912;2023-03-23T00:29:16;98424.78;;;9.54;92.19
66627;BME280;53498;50.422;14.912;2023-03-23T00:31:43;98418.69;;;9.58;90.63
66627;BME280;53498;50.422;14.912;2023-03-23T00:34:16;98418.72;;;9.48;91.49
66627;BME280;53498;50.422;14.912;2023-03-23T00:36:47;98425.72;;;9.43;91.79
66627;BME280;53498;50.422;14.912;2023-03-23T00:39:14;98419.66;;;9.41;91.40
66627;BME280;53498;50.422;14.912;2023-03-23T00:41:46;98411.88;;;9.37;91.82
66627;BME280;53498;50.422;14.912;2023-03-23T00:44:14;98413.63;;;9.35;92.38
66627;BME280;53498;50.422;14.912;2023-03-23T00:46:43;98416.25;;;9.30;93.56
66627;BME280;53498;50.422;14.912;2023-03-23T00:49:13;98413.69;;;9.25;93.83
66627;BME280;53498;50.422;14.912;2023-03-23T00:51:41;98421.47;;;9.21;94.01
66627;BME280;53498;50.422;14.912;2023-03-23T00:54:08;98417.19;;;9.17;93.28
66627;BME280;53498;50.422;14.912;2023-03-23T00:56:34;98414.59;;;9.17;94.28
66627;BME280;53498;50.422;14.912;2023-03-23T00:59:01;98405.06;;;9.14;93.97
66627;BME280;53498;50.422;14.912;2023-03-23T01:01:26;98401.63;;;9.14;94.35
66627;BME280;53498;50.422;14.912;2023-03-23T01:03:52;98409.41;;;9.11;95.79
66627;BME280;53498;50.422;14.912;2023-03-23T01:06:33;98397.34;;;9.07;94.63
66627;BME280;53498;50.422;14.912;2023-03-23T01:09:02;98391.31;;;9.03;93.46
66627;BME280;53498;50.422;14.912;2023-03-23T01:11:32;98395.59;;;9.06;94.33
66627;BME280;53498;50.422;14.912;2023-03-23T01:13:57;98399.97;;;8.96;94.07
66627;BME280;53498;50.422;14.912;2023-03-23T01:16:23;98399.13;;;8.92;96.25
66627;BME280;53498;50.422;14.912;2023-03-23T01:18:49;98384.44;;;8.90;95.83
66627;BME280;53498;50.422;14.912;2023-03-23T01:21:18;98387.06;;;8.85;95.83
66627;BME280;53498;50.422;14.912;2023-03-23T01:23:44;98376.69;;;8.80;95.40
66627;BME280;53498;50.422;14.912;2023-03-23T01:26:13;98372.38;;;8.76;95.00
66627;BME280;53498;50.422;14.912;2023-03-23T01:28:42;98375.81;;;8.80;94.40
66627;BME280;53498;50.422;14.912;2023-03-23T01:31:11;98374.94;;;8.86;93.70
66627;BME280;53498;50.422;14.912;2023-03-23T01:33:38;98374.91;;;8.92;93.50
66627;BME280;53498;50.422;14.912;2023-03-23T01:36:06;98378.34;;;8.98;93.83
66627;BME280;53498;50.422;14.912;2023-03-23T01:38:32;98371.47;;;8.91;94.01
66627;BME280;53498;50.422;14.912;2023-03-23T01:40:58;98374.06;;;8.94;95.39
66627;BME280;53498;50.422;14.912;2023-03-23T01:43:24;98367.13;;;8.92;94.42
66627;BME280;53498;50.422;14.912;2023-03-23T01:45:50;98365.41;;;8.94;93.98
66627;BME280;53498;50.422;14.912;2023-03-23T01:48:23;98374.91;;;8.99;93.73
66627;BME280;53498;50.422;14.912;2023-03-23T01:53:42;98380.94;;;9.01;94.78
66627;BME280;53498;50.422;14.912;2023-03-23T01:56:17;98374.00;;;9.03;94.40
66627;BME280;53498;50.422;14.912;2023-03-23T01:58:44;98372.31;;;8.99;93.91
66627;BME280;53498;50.422;14.912;2023-03-23T02:01:13;98377.56;;;8.87;94.83
66627;BME280;53498;50.422;14.912;2023-03-23T02:03:43;98373.19;;;8.89;93.97
66627;BME280;53498;50.422;14.912;2023-03-23T02:06:09;98371.47;;;8.91;93.67
66627;BME280;53498;50.422;14.912;2023-03-23T02:08:35;98376.69;;;8.85;94.68
66627;BME280;53498;50.422;14.912;2023-03-23T02:11:11;98365.44;;;8.86;95.74
66627;BME280;53498;50.422;14.912;2023-03-23T02:13:37;98374.97;;;8.81;95.73
66627;BME280;53498;50.422;14.912;2023-03-23T02:26:53;98353.38;;;8.79;96.71
66627;BME280;53498;50.422;14.912;2023-03-23T02:32:34;98340.38;;;8.85;96.55
66627;BME280;53498;50.422;14.912;2023-03-23T02:35:11;98342.94;;;8.94;96.84
66627;BME280;53498;50.422;14.912;2023-03-23T02:38:00;98348.94;;;9.02;96.21
66627;BME280;53498;50.422;14.912;2023-03-23T02:40:37;98354.06;;;9.09;95.58
66627;BME280;53498;50.422;14.912;2023-03-23T02:43:07;98349.75;;;9.11;95.86
66627;BME280;53498;50.422;14.912;2023-03-23T02:45:36;98348.03;;;9.13;95.57
66627;BME280;53498;50.422;14.912;2023-03-23T02:48:04;98341.97;;;9.08;94.61
66627;BME280;53498;50.422;14.912;2023-03-23T02:50:32;98336.78;;;9.11;96.28
66627;BME280;53498;50.422;14.912;2023-03-23T02:52:59;98335.03;;;9.16;95.37
66627;BME280;53498;50.422;14.912;2023-03-23T02:55:27;98336.75;;;9.14;95.22
66627;BME280;53498;50.422;14.912;2023-03-23T02:57:54;98335.88;;;9.16;95.29
66627;BME280;53498;50.422;14.912;2023-03-23T03:00:20;98335.88;;;9.16;95.94
66627;BME280;53498;50.422;14.912;2023-03-23T03:02:49;98335.06;;;9.10;96.39
66627;BME280;53498;50.422;14.912;2023-03-23T03:08:52;98331.59;;;9.12;95.93
66627;BME280;53498;50.422;14.912;2023-03-23T03:11:20;98329.00;;;9.12;96.07
66627;BME280;53498;50.422;14.912;2023-03-23T03:14:10;98335.13;;;9.00;95.59
66627;BME280;53498;50.422;14.912;2023-03-23T03:17:30;98324.69;;;9.07;96.25
66627;BME280;53498;50.422;14.912;2023-03-23T03:19:37;98325.50;;;9.15;96.05
66627;BME280;53498;50.422;14.912;2023-03-23T03:22:05;98322.91;;;9.16;95.61
66627;BME280;53498;50.422;14.912;2023-03-23T03:24:33;98324.69;;;9.10;95.67
66627;BME280;53498;50.422;14.912;2023-03-23T03:27:01;98327.28;;;9.10;96.60
66627;BME280;53498;50.422;14.912;2023-03-23T03:29:32;98326.41;;;9.11;96.76
66627;BME280;53498;50.422;14.912;2023-03-23T03:32:01;98329.03;;;9.06;96.76
66627;BME280;53498;50.422;14.912;2023-03-23T03:34:31;98332.44;;;9.13;96.20
66627;BME280;53498;50.422;14.912;2023-03-23T03:37:00;98323.81;;;9.09;97.04
66627;BME280;53498;50.422;14.912;2023-03-23T03:39:27;98329.00;;;9.12;97.11
66627;BME280;53498;50.422;14.912;2023-03-23T03:41:53;98320.28;;;9.18;97.18
66627;BME280;53498;50.422;14.912;2023-03-23T03:44:20;98317.66;;;9.24;97.65
66627;BME280;53498;50.422;14.912;2023-03-23T03:46:45;98319.41;;;9.20;97.40
66627;BME280;53498;50.422;14.912;2023-03-23T03:49:12;98333.31;;;9.12;96.82
66627;BME280;53498;50.422;14.912;2023-03-23T03:51:38;98322.94;;;9.09;97.13
66627;BME280;53498;50.422;14.912;2023-03-23T03:54:04;98324.75;;;9.00;97.53
66627;BME280;53498;50.422;14.912;2023-03-23T03:56:30;98332.50;;;9.02;97.81
66627;BME280;53498;50.422;14.912;2023-03-23T03:58:58;98324.72;;;9.03;98.29
66627;BME280;53498;50.422;14.912;2023-03-23T04:01:24;98323.06;;;8.93;97.58
66627;BME280;53498;50.422;14.912;2023-03-23T04:03:50;98323.03;;;8.95;98.69
66627;BME280;53498;50.422;14.912;2023-03-23T04:06:17;98327.38;;;8.94;99.32
66627;BME280;53498;50.422;14.912;2023-03-23T04:08:43;98330.81;;;8.96;98.39
66627;BME280;53498;50.422;14.912;2023-03-23T04:11:14;98334.31;;;8.86;97.96
66627;BME280;53498;50.422;14.912;2023-03-23T04:13:40;98341.22;;;8.86;99.00
66627;BME280;53498;50.422;14.912;2023-03-23T04:16:06;98347.34;;;8.74;98.76
66627;BME280;53498;50.422;14.912;2023-03-23T04:18:33;98343.94;;;8.66;99.16
66627;BME280;53498;50.422;14.912;2023-03-23T04:21:00;98340.44;;;8.73;99.64
66627;BME280;53498;50.422;14.912;2023-03-23T04:23:27;98339.66;;;8.55;99.08
66627;BME280;53498;50.422;14.912;2023-03-23T04:25:55;98339.59;;;8.58;99.81
66627;BME280;53498;50.422;14.912;2023-03-23T04:28:23;98341.38;;;8.53;100.00
66627;BME280;53498;50.422;14.912;2023-03-23T04:30:51;98338.78;;;8.53;100.00
66627;BME280;53498;50.422;14.912;2023-03-23T04:33:30;98333.63;;;8.47;100.00
66627;BME280;53498;50.422;14.912;2023-03-23T04:35:58;98328.41;;;8.53;100.00
66627;BME280;53498;50.422;14.912;2023-03-23T04:38:27;98323.22;;;8.49;100.00
66627;BME280;53498;50.422;14.912;2023-03-23T04:40:52;98327.53;;;8.56;99.83
66627;BME280;53498;50.422;14.912;2023-03-23T04:43:20;98325.81;;;8.56;99.97
66627;BME280;53498;50.422;14.912;2023-03-23T04:45:54;98318.03;;;8.60;100.00
66627;BME280;53498;50.422;14.912;2023-03-23T04:48:28;98317.16;;;8.57;100.00
66627;BME280;53498;50.422;14.912;2023-03-23T04:50:55;98318.00;;;8.63;100.00
66627;BME280;53498;50.422;14.912;2023-03-23T04:53:21;98312.03;;;8.47;100.00
66627;BME280;53498;50.422;14.912;2023-03-23T04:55:47;98313.69;;;8.60;99.43
66627;BME280;53498;50.422;14.912;2023-03-23T04:58:14;98308.47;;;8.66;99.62
66627;BME280;53498;50.422;14.912;2023-03-23T05:00:41;98311.94;;;8.68;99.69
66627;BME280;53498;50.422;14.912;2023-03-23T05:03:11;98320.59;;;8.66;100.00
66627;BME280;53498;50.422;14.912;2023-03-23T05:05:41;98321.44;;;8.65;100.00
66627;BME280;53498;50.422;14.912;2023-03-23T05:08:07;98330.09;;;8.65;100.00
66627;BME280;53498;50.422;14.912;2023-03-23T05:10:33;98330.97;;;8.66;100.00
66627;BME280;53498;50.422;14.912;2023-03-23T05:12:58;98341.34;;;8.61;99.95
66627;BME280;53498;50.422;14.912;2023-03-23T05:15:24;98345.63;;;8.67;100.00
66627;BME280;53498;50.422;14.912;2023-03-23T05:17:53;98345.63;;;8.67;100.00
66627;BME280;53498;50.422;14.912;2023-03-23T05:20:18;98351.69;;;8.67;100.00
66627;BME280;53498;50.422;14.912;2023-03-23T05:22:46;98345.66;;;8.64;100.00
66627;BME280;53498;50.422;14.912;2023-03-23T05:25:15;98350.84;;;8.64;100.00
66627;BME280;53498;50.422;14.912;2023-03-23T05:27:45;98342.25;;;8.52;100.00
66627;BME280;53498;50.422;14.912;2023-03-23T05:30:14;98343.94;;;8.63;100.00
66627;BME280;53498;50.422;14.912;2023-03-23T05:32:45;98339.56;;;8.68;100.00
66627;BME280;53498;50.422;14.912;2023-03-23T05:35:11;98339.59;;;8.69;100.00
66627;BME280;53498;50.422;14.912;2023-03-23T05:37:37;98340.44;;;8.67;100.00
66627;BME280;53498;50.422;14.912;2023-03-23T05:40:05;98336.97;;;8.71;100.00
66627;BME280;53498;50.422;14.912;2023-03-23T05:42:36;98336.97;;;8.74;100.00
66627;BME280;53498;50.422;14.912;2023-03-23T05:45:03;98330.00;;;8.85;100.00
66627;BME280;53498;50.422;14.912;2023-03-23T05:47:29;98342.06;;;8.92;100.00
66627;BME280;53498;50.422;14.912;2023-03-23T05:49:56;98335.16;;;8.90;100.00
66627;BME280;53498;50.422;14.912;2023-03-23T05:52:22;98340.31;;;8.97;100.00
66627;BME280;53498;50.422;14.912;2023-03-23T05:54:49;98336.84;;;9.03;100.00
66627;BME280;53498;50.422;14.912;2023-03-23T05:57:15;98326.41;;;9.12;100.00
66627;BME280;53498;50.422;14.912;2023-03-23T05:59:41;98333.25;;;9.21;100.00
66627;BME280;53498;50.422;14.912;2023-03-23T06:02:06;98337.53;;;9.30;100.00
66627;BME280;53498;50.422;14.912;2023-03-23T06:04:33;98329.69;;;9.37;100.00
66627;BME280;53498;50.422;14.912;2023-03-23T06:07:00;98331.31;;;9.50;99.56
66627;BME280;53498;50.422;14.912;2023-03-23T06:09:27;98339.06;;;9.57;98.49
66627;BME280;53498;50.422;14.912;2023-03-23T06:11:53;98338.19;;;9.58;98.10
66627;BME280;53498;50.422;14.912;2023-03-23T06:14:18;98342.44;;;9.69;98.02
66627;BME280;53498;50.422;14.912;2023-03-23T06:16:44;98333.78;;;9.67;98.69
66627;BME280;53498;50.422;14.912;2023-03-23T06:19:10;98332.00;;;9.72;99.01
66627;BME280;53498;50.422;14.912;2023-03-23T06:21:36;98326.00;;;9.69;98.68
66627;BME280;53498;50.422;14.912;2023-03-23T06:24:05;98325.09;;;9.71;98.27
66627;BME280;53498;50.422;14.912;2023-03-23T06:26:34;98326.75;;;9.82;97.05
66627;BME280;53498;50.422;14.912;2023-03-23T06:29:00;98328.44;;;9.86;95.05
66627;BME280;53498;50.422;14.912;2023-03-23T06:31:26;98331.03;;;9.86;93.15
66627;BME280;53498;50.422;14.912;2023-03-23T06:33:53;98330.09;;;9.93;92.42
66627;BME280;53498;50.422;14.912;2023-03-23T06:36:19;98324.81;;;10.04;91.83
66627;BME280;53498;50.422;14.912;2023-03-23T06:38:44;98328.13;;;10.16;90.60
66627;BME280;53498;50.422;14.912;2023-03-23T06:41:11;98324.56;;;10.30;90.68
66627;BME280;53498;50.422;14.912;2023-03-23T06:43:36;98321.03;;;10.35;90.47
66627;BME280;53498;50.422;14.912;2023-03-23T06:46:06;98313.19;;;10.38;90.64
66627;BME280;53498;50.422;14.912;2023-03-23T06:48:32;98312.41;;;10.30;90.27
66627;BME280;53498;50.422;14.912;2023-03-23T06:50:57;98318.53;;;10.26;91.13
66627;BME280;53498;50.422;14.912;2023-03-23T06:53:23;98325.38;;;10.33;90.80
66627;BME280;53498;50.422;14.912;2023-03-23T06:55:50;98318.28;;;10.48;90.51
66627;BME280;53498;50.422;14.912;2023-03-23T06:58:15;98313.84;;;10.56;90.20
66627;BME280;53498;50.422;14.912;2023-03-23T07:00:41;98330.34;;;10.56;89.14
66627;BME280;53498;50.422;14.912;2023-03-23T07:03:09;98318.97;;;10.63;90.80
66627;BME280;53498;50.422;14.912;2023-03-23T07:05:35;98329.41;;;10.60;89.77
66627;BME280;53498;50.422;14.912;2023-03-23T07:08:04;98336.44;;;10.54;89.60
66627;BME280;53498;50.422;14.912;2023-03-23T07:10:30;98343.44;;;10.46;90.62
66627;BME280;53498;50.422;14.912;2023-03-23T07:12:56;98345.97;;;10.52;91.30
66627;BME280;53498;50.422;14.912;2023-03-23T07:15:22;98341.56;;;10.60;91.83
66627;BME280;53498;50.422;14.912;2023-03-23T07:17:51;98332.84;;;10.64;91.21
66627;BME280;53498;50.422;14.912;2023-03-23T07:20:17;98339.53;;;10.85;90.03
66627;BME280;53498;50.422;14.912;2023-03-23T07:22:43;98338.69;;;10.81;89.83
66627;BME280;53498;50.422;14.912;2023-03-23T07:25:08;98342.00;;;10.94;89.22
66627;BME280;53498;50.422;14.912;2023-03-23T07:27:35;98338.34;;;11.06;88.41
66627;BME280;53498;50.422;14.912;2023-03-23T07:30:01;98342.66;;;11.10;88.24
66627;BME280;53498;50.422;14.912;2023-03-23T07:32:32;98339.97;;;11.16;88.54
66627;BME280;53498;50.422;14.912;2023-03-23T07:34:58;98335.63;;;11.15;88.35
66627;BME280;53498;50.422;14.912;2023-03-23T07:37:23;98341.50;;;11.28;86.79
66627;BME280;53498;50.422;14.912;2023-03-23T07:39:49;98338.91;;;11.28;86.33
66627;BME280;53498;50.422;14.912;2023-03-23T07:42:15;98335.13;;;11.49;85.78
66627;BME280;53498;50.422;14.912;2023-03-23T07:44:41;98334.84;;;11.66;86.18
66627;BME280;53498;50.422;14.912;2023-03-23T07:47:06;98343.25;;;11.88;85.32
66627;BME280;53498;50.422;14.912;2023-03-23T07:49:32;98342.09;;;12.04;83.75
66627;BME280;53498;50.422;14.912;2023-03-23T07:51:59;98350.63;;;12.12;82.12
66627;BME280;53498;50.422;14.912;2023-03-23T07:54:28;98350.44;;;12.21;83.16
66627;BME280;53498;50.422;14.912;2023-03-23T07:56:54;98361.94;;;12.13;83.36
66627;BME280;53498;50.422;14.912;2023-03-23T07:59:20;98352.13;;;12.25;84.86
66627;BME280;53498;50.422;14.912;2023-03-23T08:01:45;98352.34;;;12.13;84.31
66627;BME280;53498;50.422;14.912;2023-03-23T08:04:11;98354.22;;;12.07;84.00
66627;BME280;53498;50.422;14.912;2023-03-23T08:06:38;98361.16;;;12.06;85.44
66627;BME280;53498;50.422;14.912;2023-03-23T08:09:05;98346.97;;;12.22;84.91
66627;BME280;53498;50.422;14.912;2023-03-23T08:11:39;98350.00;;;12.47;84.47
66627;BME280;53498;50.422;14.912;2023-03-23T08:14:04;98353.53;;;12.43;82.47
66627;BME280;53498;50.422;14.912;2023-03-23T08:16:31;98351.59;;;12.53;83.33
66627;BME280;53498;50.422;14.912;2023-03-23T08:18:57;98346.88;;;12.72;82.80
66627;BME280;53498;50.422;14.912;2023-03-23T08:21:23;98348.91;;;13.01;80.32
66627;BME280;53498;50.422;14.912;2023-03-23T08:23:49;98349.94;;;12.92;79.35
66627;BME280;53498;50.422;14.912;2023-03-23T08:26:15;98350.59;;;13.02;80.22
66627;BME280;53498;50.422;14.912;2023-03-23T08:28:43;98343.22;;;13.23;79.73
66627;BME280;53498;50.422;14.912;2023-03-23T08:31:11;98353.50;;;13.32;79.77
66627;BME280;53498;50.422;14.912;2023-03-23T08:33:38;98352.44;;;13.39;79.23
66627;BME280;53498;50.422;14.912;2023-03-23T08:36:04;98349.75;;;13.42;77.41
66627;BME280;53498;50.422;14.912;2023-03-23T08:38:30;98355.38;;;13.62;76.68
66627;BME280;53498;50.422;14.912;2023-03-23T08:41:01;98357.25;;;13.93;74.55
66627;BME280;53498;50.422;14.912;2023-03-23T08:43:28;98348.25;;;14.03;72.78
66627;BME280;53498;50.422;14.912;2023-03-23T08:45:54;98343.34;;;14.25;72.91
66627;BME280;53498;50.422;14.912;2023-03-23T08:48:20;98338.78;;;14.32;72.71
66627;BME280;53498;50.422;14.912;2023-03-23T08:50:46;98334.63;;;14.25;70.48
66627;BME280;53498;50.422;14.912;2023-03-23T08:53:12;98336.91;;;14.37;70.79
66627;BME280;53498;50.422;14.912;2023-03-23T08:55:38;98325.72;;;14.32;69.24
66627;BME280;53498;50.422;14.912;2023-03-23T08:58:05;98336.25;;;14.29;69.83
66627;BME280;53498;50.422;14.912;2023-03-23T09:00:31;98336.72;;;14.45;69.01
66627;BME280;53498;50.422;14.912;2023-03-23T09:02:58;98332.31;;;14.78;69.63
66627;BME280;53498;50.422;14.912;2023-03-23T09:05:25;98338.16;;;14.88;67.99
66627;BME280;53498;50.422;14.912;2023-03-23T09:07:54;98332.66;;;14.97;66.74
66627;BME280;53498;50.422;14.912;2023-03-23T09:10:21;98333.59;;;14.94;67.72
66627;BME280;53498;50.422;14.912;2023-03-23T09:12:47;98334.31;;;14.70;68.32
66627;BME280;53498;50.422;14.912;2023-03-23T09:15:21;98336.13;;;14.66;67.83
66627;BME280;53498;50.422;14.912;2023-03-23T09:17:48;98331.47;;;14.77;68.37
66627;BME280;53498;50.422;14.912;2023-03-23T09:20:18;98326.78;;;14.89;68.47
66627;BME280;53498;50.422;14.912;2023-03-23T09:22:46;98321.03;;;14.76;67.67
66627;BME280;53498;50.422;14.912;2023-03-23T09:25:14;98326.00;;;14.85;68.46
66627;BME280;53498;50.422;14.912;2023-03-23T09:27:49;98329.69;;;14.79;69.47
66627;BME280;53498;50.422;14.912;2023-03-23T09:30:19;98330.09;;;14.64;69.04
66627;BME280;53498;50.422;14.912;2023-03-23T09:32:46;98335.50;;;14.89;69.34
66627;BME280;53498;50.422;14.912;2023-03-23T09:35:14;98328.00;;;15.07;68.84
66627;BME280;53498;50.422;14.912;2023-03-23T09:37:48;98324.22;;;15.17;68.59
66627;BME280;53498;50.422;14.912;2023-03-23T09:40:33;98335.34;;;15.52;67.65
66627;BME280;53498;50.422;14.912;2023-03-23T09:48:55;98334.44;;;15.53;66.44
66627;BME280;53498;50.422;14.912;2023-03-23T09:51:37;98327.88;;;15.66;66.00
66627;BME280;53498;50.422;14.912;2023-03-23T09:54:26;98321.34;;;16.06;63.76
66627;BME280;53498;50.422;14.912;2023-03-23T09:56:54;98329.03;;;16.37;62.22
66627;BME280;53498;50.422;14.912;2023-03-23T10:00:01;98332.81;;;16.28;60.52
66627;BME280;53498;50.422;14.912;2023-03-23T10:02:45;98326.94;;;16.22;61.33
66627;BME280;53498;50.422;14.912;2023-03-23T10:07:58;98332.69;;;16.06;62.07
66627;BME280;53498;50.422;14.912;2023-03-23T10:16:22;98331.22;;;15.99;62.33
66627;BME280;53498;50.422;14.912;2023-03-23T10:19:03;98329.84;;;15.87;62.38
66627;BME280;53498;50.422;14.912;2023-03-23T10:21:38;98337.50;;;15.93;62.62
66627;BME280;53498;50.422;14.912;2023-03-23T10:24:10;98323.53;;;15.93;62.72
66627;BME280;53498;50.422;14.912;2023-03-23T10:26:54;98328.44;;;15.77;63.36
66627;BME280;53498;50.422;14.912;2023-03-23T10:29:43;98330.69;;;15.88;62.38
66627;BME280;53498;50.422;14.912;2023-03-23T10:32:15;98327.31;;;15.84;62.46
66627;BME280;53498;50.422;14.912;2023-03-23T10:35:00;98319.97;;;15.69;63.37
66627;BME280;53498;50.422;14.912;2023-03-23T10:37:36;98313.81;;;15.70;62.81
66627;BME280;53498;50.422;14.912;2023-03-23T10:40:06;98312.84;;;15.72;63.73
66627;BME280;53498;50.422;14.912;2023-03-23T10:42:37;98317.69;;;15.85;63.17
66627;BME280;53498;50.422;14.912;2023-03-23T10:45:23;98315.03;;;15.86;61.49
66627;BME280;53498;50.422;14.912;2023-03-23T10:47:58;98309.09;;;16.06;61.03
66627;BME280;53498;50.422;14.912;2023-03-23T10:50:35;98306.44;;;16.33;59.11
66627;BME280;53498;50.422;14.912;2023-03-23T10:53:13;98305.19;;;16.43;59.29
66627;BME280;53498;50.422;14.912;2023-03-23T10:55:41;98306.56;;;16.53;57.84
66627;BME280;53498;50.422;14.912;2023-03-23T10:58:11;98306.63;;;16.52;57.21
66627;BME280;53498;50.422;14.912;2023-03-23T11:00:46;98302.16;;;16.54;56.67
66627;BME280;53498;50.422;14.912;2023-03-23T11:05:57;98312.81;;;16.74;55.71
66627;BME280;53498;50.422;14.912;2023-03-23T11:08:27;98300.78;;;16.67;56.96
66627;BME280;53498;50.422;14.912;2023-03-23T11:10:57;98300.53;;;16.75;54.91
66627;BME280;53498;50.422;14.912;2023-03-23T11:13:29;98301.41;;;16.75;54.02
66627;BME280;53498;50.422;14.912;2023-03-23T11:15:55;98304.72;;;16.80;54.58
66627;BME280;53498;50.422;14.912;2023-03-23T11:18:35;98304.38;;;16.90;54.42
66627;BME280;53498;50.422;14.912;2023-03-23T11:21:07;98305.16;;;16.92;53.66
66627;BME280;53498;50.422;14.912;2023-03-23T11:23:37;98303.03;;;17.25;53.31
66627;BME280;53498;50.422;14.912;2023-03-23T11:26:17;98315.00;;;17.54;51.95
66627;BME280;53498;50.422;14.912;2023-03-23T11:28:48;98303.81;;;17.49;52.09
66627;BME280;53498;50.422;14.912;2023-03-23T11:31:17;98316.34;;;17.42;52.03
66627;BME280;53498;50.422;14.912;2023-03-23T11:33:52;98311.63;;;17.28;51.89
66627;BME280;53498;50.422;14.912;2023-03-23T11:36:18;98310.78;;;17.28;51.54
66627;BME280;53498;50.422;14.912;2023-03-23T11:38:45;98313.09;;;17.35;51.44
66627;BME280;53498;50.422;14.912;2023-03-23T11:41:12;98310.06;;;17.24;51.91
66627;BME280;53498;50.422;14.912;2023-03-23T11:43:44;98313.16;;;17.12;52.95
66627;BME280;53498;50.422;14.912;2023-03-23T11:46:18;98315.22;;;17.04;52.62
66627;BME280;53498;50.422;14.912;2023-03-23T11:49:01;98314.13;;;17.09;53.72
66627;BME280;53498;50.422;14.912;2023-03-23T11:56:43;98315.75;;;16.65;56.03
66627;BME280;53498;50.422;14.912;2023-03-23T11:59:17;98314.41;;;16.55;57.20
66627;BME280;53498;50.422;14.912;2023-03-23T12:01:53;98306.28;;;16.61;59.22
66627;BME280;53498;50.422;14.912;2023-03-23T12:07:21;98318.03;;;16.51;59.92
66627;BME280;53498;50.422;14.912;2023-03-23T12:12:47;98304.56;;;16.36;60.50
66627;BME280;53498;50.422;14.912;2023-03-23T12:15:25;98310.91;;;16.29;62.30
66627;BME280;53498;50.422;14.912;2023-03-23T12:23:25;98316.25;;;16.26;59.78
66627;BME280;53498;50.422;14.912;2023-03-23T12:39:50;98317.78;;;16.82;64.21
66627;BME280;53498;50.422;14.912;2023-03-23T12:47:41;98311.09;;;16.25;63.45
66627;BME280;53498;50.422;14.912;2023-03-23T12:50:21;98317.50;;;16.16;63.68
66627;BME280;53498;50.422;14.912;2023-03-23T12:52:54;98320.75;;;15.98;64.03
66627;BME280;53498;50.422;14.912;2023-03-23T13:01:10;98320.78;;;15.71;70.03
66627;BME280;53498;50.422;14.912;2023-03-23T13:03:44;98321.63;;;15.71;70.14
66627;BME280;53498;50.422;14.912;2023-03-23T13:08:52;98310.97;;;15.76;71.54
66627;BME280;53498;50.422;14.912;2023-03-23T13:11:23;98310.88;;;15.79;72.89
66627;BME280;53498;50.422;14.912;2023-03-23T13:13:56;98309.03;;;15.83;72.82
66627;BME280;53498;50.422;14.912;2023-03-23T13:19:03;98314.94;;;15.89;74.61
66627;BME280;53498;50.422;14.912;2023-03-23T13:21:32;98319.25;;;15.90;74.73
66627;BME280;53498;50.422;14.912;2023-03-23T13:24:06;98315.72;;;15.91;72.10
66627;BME280;53498;50.422;14.912;2023-03-23T13:26:38;98318.53;;;15.85;72.30
66627;BME280;53498;50.422;14.912;2023-03-23T13:29:17;98310.44;;;15.93;70.99
66627;BME280;53498;50.422;14.912;2023-03-23T13:31:47;98307.59;;;15.72;71.69
66627;BME280;53498;50.422;14.912;2023-03-23T13:34:28;98307.88;;;15.63;74.82
66627;BME280;53498;50.422;14.912;2023-03-23T13:39:37;98296.56;;;15.89;74.28
66627;BME280;53498;50.422;14.912;2023-03-23T13:49:57;98307.19;;;16.11;73.36
66627;BME280;53498;50.422;14.912;2023-03-23T13:55:21;98295.59;;;15.92;73.50
66627;BME280;53498;50.422;14.912;2023-03-23T14:05:44;98313.84;;;16.20;74.11
66627;BME280;53498;50.422;14.912;2023-03-23T14:10:55;98314.66;;;15.97;74.50
66627;BME280;53498;50.422;14.912;2023-03-23T14:13:44;98317.13;;;16.02;77.05
66627;BME280;53498;50.422;14.912;2023-03-23T14:16:23;98319.75;;;16.02;77.67
66627;BME280;53498;50.422;14.912;2023-03-23T14:19:00;98321.56;;;16.00;78.29
66627;BME280;53498;50.422;14.912;2023-03-23T14:21:38;98328.63;;;15.98;79.53
66627;BME280;53498;50.422;14.912;2023-03-23T14:24:22;98328.81;;;15.91;80.08
66627;BME280;53498;50.422;14.912;2023-03-23T14:26:49;98328.06;;;15.88;78.94
66627;BME280;53498;50.422;14.912;2023-03-23T14:29:18;98324.66;;;15.86;80.57
66627;BME280;53498;50.422;14.912;2023-03-23T14:31:43;98324.75;;;15.83;79.27
66627;BME280;53498;50.422;14.912;2023-03-23T14:34:19;98319.47;;;15.84;80.49
66627;BME280;53498;50.422;14.912;2023-03-23T14:36:45;98309.53;;;15.66;81.39
66627;BME280;53498;50.422;14.912;2023-03-23T14:41:37;98298.28;;;15.62;79.92
66627;BME280;53498;50.422;14.912;2023-03-23T14:44:06;98308.22;;;15.81;79.58
66627;BME280;53498;50.422;14.912;2023-03-23T14:46:34;98302.59;;;15.91;78.58
66627;BME280;53498;50.422;14.912;2023-03-23T14:49:04;98300.41;;;16.04;78.49
66627;BME280;53498;50.422;14.912;2023-03-23T14:51:31;98293.63;;;15.99;79.19
66627;BME280;53498;50.422;14.912;2023-03-23T14:54:00;98293.72;;;15.95;79.26
66627;BME280;53498;50.422;14.912;2023-03-23T14:56:35;98289.75;;;15.84;77.75